Latest Coastal Weather Observations for Robe Airport

IDS60701

Issued at 3:01 pm CDT Thursday 30 March 2017 (issued every 10 minutes, with the page automatically refreshed every 10 minutes)

About coastal observations | Map of coastal stations | Coastal observations for SA | Marine services | Other Formats
Station Details ID: 026105 Name: ROBE AIRFIELD Lat: -37.18 Lon: 139.81 Height: 3.0 m
Data from the previous 72 hours. | See also: Recent months at Robe Airport
Date/Time
CDT
Temp
°C
Wind Pressure Rain since
9am
mm
Weather Cloud Vis
km
Sea
Height
m
Swell
Dir  Spd
kts
Gust
kts
hPa Trend Height
m
Period
s
Dir
30/03:00pm 16.2 SSW 9 13 1022.3 - 0.0 - - - - - - -
30/02:30pm 14.0 SSW 16 23 1022.5 - 0.0 - - - - - - -
30/02:00pm 15.9 SSW 11 19 1022.1 - 0.0 - - - - - - -
30/01:30pm 14.8 SSW 12 21 1022.3 - 0.0 - - - - - - -
30/01:00pm 17.1 SSW 13 20 1022.2 - 0.0 - - - - - - -
30/12:30pm 17.0 SSW 12 19 1022.2 - 0.0 - - - - - - -
30/12:00pm 16.9 SSW 13 18 1022.2 - 0.0 - - - - - - -
30/11:30am 16.6 SSW 13 19 1021.9 - 0.0 - - - - - - -
30/11:00am 15.6 SSW 14 21 1021.8 - 0.0 - - - - - - -
30/10:30am 15.4 SSW 13 19 1021.5 - 0.0 - - - - - - -
30/10:00am 13.0 SSW 8 13 1021.5 - 0.0 - - - - - - -
30/09:30am 13.8 SSW 9 15 1021.1 - 0.0 - - - - - - -
30/09:00am 14.4 SSW 10 18 1020.6 - 7.2 - - - - - - -
30/08:30am 13.5 SSW 9 13 1020.0 - 7.2 - - - - - - -
30/08:00am 11.1 SSW 3 5 1019.8 - 7.2 - - - - - - -
30/07:30am 10.9 SSW 9 16 1019.4 - 7.2 - - - - - - -
30/07:13am 12.9 SW 15 26 1019.1 - 6.8 - - - - - - -
30/07:00am 13.3 SW 11 16 1018.7 - 6.8 - - - - - - -
30/06:30am 13.7 SW 12 19 1018.3 - 6.8 - - - - - - -
30/06:00am 13.9 SW 12 21 1017.8 - 6.8 - - - - - - -
30/05:30am 13.7 SW 12 18 1017.3 - 6.8 - - - - - - -
30/05:00am 13.9 SW 13 21 1016.9 - 6.8 - - - - - - -
30/04:30am 13.5 SW 12 17 1016.6 - 6.8 - - - - - - -
30/04:00am 13.3 SW 11 19 1016.2 - 6.8 - - - - - - -
30/03:30am 13.3 SW 12 20 1016.0 - 6.8 - - - - - - -
30/03:00am 13.5 SW 11 17 1015.9 - 6.8 - - - - - - -
30/02:30am 13.6 SW 9 14 1016.0 - 6.8 - - - - - - -
30/02:00am 13.7 SW 12 21 1015.9 - 6.8 - - - - - - -
30/01:30am 13.3 SW 10 17 1015.6 - 6.8 - - - - - - -
30/01:00am 13.1 SW 11 19 1015.7 - 6.8 - - - - - - -
30/12:30am 13.8 WSW 11 18 1015.4 - 6.8 - - - - - - -
30/12:00am 13.5 SW 10 16 1015.3 - 6.8 Recent precip. - - - - - -
 
Date/Time
CDT
Temp
°C
Wind Pressure Rain since
9am
mm
Weather Cloud Vis
km
Sea
Height
m
Swell
Dir  Spd
kts
Gust
kts
hPa Trend Height
m
Period
s
Dir
29/11:30pm 13.2 WSW 10 18 1015.1 - 6.8 - - - - - - -
29/11:00pm 12.7 SW 8 17 1014.9 - 6.6 - - - - - - -
29/10:30pm 12.5 SSW 12 18 1015.0 - 6.6 - - - - - - -
29/10:00pm 11.9 SW 8 11 1014.5 - 6.6 - - - - - - -
29/09:30pm 10.4 WNW 4 8 1014.4 - 6.6 - - - - - - -
29/09:00pm 12.0 WSW 14 27 1014.2 - 5.0 Rain - - - - - -
29/08:30pm 14.5 WSW 10 17 1012.8 - 3.6 - - - - - - -
29/08:00pm 14.2 W 8 16 1012.5 - 3.6 - - - - - - -
29/07:30pm 14.6 WSW 10 17 1012.0 - 3.6 - - - - - - -
29/07:00pm 14.8 WSW 9 17 1011.6 - 3.6 - - - - - - -
29/06:30pm 15.4 WSW 9 16 1011.3 - 3.6 - - - - - - -
29/06:00pm 15.2 SW 10 15 1010.8 - 3.6 - - - - - - -
29/05:30pm 15.9 SW 8 14 1010.2 - 3.6 - - - - - - -
29/05:00pm 15.3 SW 7 12 1010.0 - 3.6 - - - - - - -
29/04:30pm 15.0 SW 9 16 1010.0 - 3.6 - - - - - - -
29/04:00pm 14.2 SW 8 14 1009.7 - 3.6 - - - - - - -
29/03:30pm 13.4 SW 9 17 1009.5 - 3.6 - - - - - - -
29/03:00pm 13.0 SW 15 22 1009.5 - 3.4 Rain - - - - - -
29/02:34pm 13.1 SW 16 27 1009.4 - 2.6 - - - - - - -
29/02:30pm 13.2 SW 18 28 1009.2 - 2.6 - - - - - - -
29/02:09pm 12.8 SW 18 29 1009.0 - 2.6 - - - - - - -
29/02:00pm 13.3 SW 21 28 1008.9 - 2.6 - - - - - - -
29/01:35pm 14.3 SSW 16 26 1008.4 - 2.0 - - - - - - -
29/01:30pm 14.2 SSW 19 27 1008.2 - 1.8 - - - - - - -
29/01:14pm 15.6 WSW 21 36 1007.4 - 1.6 - - - - - - -
29/01:09pm 16.1 NW 21 36 1006.9 - 1.2 - - - - - - -
29/01:06pm 18.4 NNW 19 36 1006.6 - 0.2 - - - - - - -
29/01:00pm 19.8 NNW 18 25 1006.6 - 0.0 - - - - - - -
29/12:30pm 21.0 NW 20 28 1007.0 - 0.0 - - - - - - -
29/12:21pm 21.6 NW 18 28 1007.1 - 0.0 - - - - - - -
29/12:00pm 21.8 NW 19 29 1007.3 - 0.0 - - - - - - -
29/11:30am 21.5 NNW 19 26 1007.4 - 0.0 - - - - - - -
29/11:00am 21.4 NW 17 22 1007.5 - 0.0 - - - - - - -
29/10:30am 20.8 NW 17 23 1007.5 - 0.0 - - - - - - -
29/10:00am 20.3 NNW 15 21 1007.4 - 0.0 - - - - - - -
29/09:30am 19.9 NW 15 21 1007.5 - 0.0 - - - - - - -
29/09:00am 18.9 NW 14 20 1007.7 - 0.0 - - - - - - -
29/08:30am 18.8 NW 13 18 1007.8 - 0.0 - - - - - - -
29/08:00am 18.2 NW 14 18 1007.8 - 0.0 - - - - - - -
29/07:30am 17.2 NW 9 13 1008.0 - 0.0 - - - - - - -
29/07:00am 17.0 NW 10 15 1007.9 - 0.0 - - - - - - -
29/06:30am 16.5 NW 10 15 1007.9 - 0.0 - - - - - - -
29/06:00am 16.2 WNW 12 19 1008.1 - 0.0 - - - - - - -
29/05:30am 17.2 WNW 11 19 1008.0 - 0.0 - - - - - - -
29/05:00am 18.0 NW 11 16 1007.8 - 0.0 - - - - - - -
29/04:30am 18.0 NW 12 16 1008.0 - 0.0 - - - - - - -
29/04:00am 18.0 NW 12 18 1008.6 - 0.0 - - - - - - -
29/03:30am 17.9 NW 12 16 1009.0 - 0.0 - - - - - - -
29/03:00am 17.6 NW 11 15 1009.0 - 0.0 - - - - - - -
29/02:30am 17.4 NW 15 20 1009.4 - 0.0 - - - - - - -
29/02:00am 17.6 NW 14 18 1009.8 - 0.0 - - - - - - -
29/01:30am 17.8 NW 11 17 1009.8 - 0.0 - - - - - - -
29/01:00am 17.6 NW 10 15 1010.2 - 0.0 - - - - - - -
29/12:30am 18.1 NNW 10 13 1010.5 - 0.0 - - - - - - -
29/12:00am 18.1 NNW 10 13 1011.0 - 0.0 - - - - - - -
 
Date/Time
CDT
Temp
°C
Wind Pressure Rain since
9am
mm
Weather Cloud Vis
km
Sea
Height
m
Swell
Dir  Spd
kts
Gust
kts
hPa Trend Height
m
Period
s
Dir
28/11:30pm 18.1 NNW 10 15 1011.2 - 0.0 - - - - - - -
28/11:00pm 18.1 NNW 10 14 1011.6 - 0.0 - - - - - - -
28/10:30pm 18.1 NNW 9 13 1011.7 - 0.0 - - - - - - -
28/10:00pm 18.0 NW 9 15 1011.8 - 0.0 - - - - - - -
28/09:30pm 18.0 NW 9 13 1012.0 - 0.0 - - - - - - -
28/09:00pm 17.9 NW 8 11 1011.9 - 0.0 - - - - - - -
28/08:30pm 17.8 NW 6 9 1011.7 - 0.0 - - - - - - -
28/08:00pm 17.9 NW 8 11 1011.8 - 0.0 - - - - - - -
28/07:30pm 17.9 NW 7 9 1011.6 - 0.0 - - - - - - -
28/07:00pm 17.9 NW 8 12 1011.7 - 0.0 - - - - - - -
28/06:30pm 18.1 NW 9 12 1012.0 - 0.0 - - - - - - -
28/06:00pm 18.4 NW 8 11 1012.1 - 0.0 - - - - - - -
28/05:30pm 18.7 NW 9 12 1012.1 - 0.0 - - - - - - -
28/05:00pm 18.8 NW 10 15 1012.2 - 0.0 - - - - - - -
28/04:30pm 19.6 NW 10 15 1012.3 - 0.0 - - - - - - -
28/04:00pm 19.7 NW 11 15 1012.4 - 0.0 - - - - - - -
28/03:30pm 20.8 NW 13 17 1012.7 - 0.0 - - - - - - -
28/03:00pm 20.7 NW 13 18 1012.9 - 0.0 - - - - - - -
28/02:30pm 20.6 NW 13 18 1013.1 - 0.0 - - - - - - -
28/02:00pm 21.1 NW 12 18 1013.2 - 0.0 - - - - - - -
28/01:30pm 21.3 NW 13 17 1013.6 - 0.0 - - - - - - -
28/01:00pm 21.5 WNW 13 19 1014.0 - 0.0 - - - - - - -
28/12:30pm 21.1 NW 11 16 1014.3 - 0.0 - - - - - - -
28/12:00pm 20.1 NW 10 14 1014.5 - 0.0 - - - - - - -
28/11:30am 19.8 WNW 10 16 1014.7 - 0.0 - - - - - - -
28/11:00am 20.9 WNW 10 15 1014.8 - 0.0 - - - - - - -
28/10:30am 19.9 WNW 10 15 1014.7 - 0.0 - - - - - - -
28/10:00am 19.0 W 9 15 1014.6 - 0.0 - - - - - - -
28/09:30am 17.6 WNW 7 10 1014.5 - 0.0 - - - - - - -
28/09:00am 17.0 WNW 5 7 1014.3 - 1.4 - - - - - - -
28/08:30am 17.2 WNW 7 11 1014.3 - 1.4 - - - - - - -
28/08:00am 16.3 WNW 5 7 1014.1 - 1.4 - - - - - - -
28/07:30am 15.5 WNW 4 6 1014.0 - 1.4 - - - - - - -
28/07:00am 15.0 WNW 5 9 1013.9 - 1.4 - - - - - - -
28/06:30am 14.9 WNW 4 8 1013.9 - 1.4 - - - - - - -
28/06:00am 15.2 WNW 5 8 1013.9 - 1.4 - - - - - - -
28/05:30am 15.2 WNW 5 7 1013.7 - 1.4 - - - - - - -
28/05:00am 15.2 WNW 5 8 1013.6 - 1.4 - - - - - - -
28/04:30am 15.7 WNW 7 12 1013.7 - 1.4 - - - - - - -
28/04:00am 15.4 WNW 6 9 1013.9 - 1.4 - - - - - - -
28/03:30am 16.0 WNW 8 12 1013.9 - 1.4 - - - - - - -
28/03:00am 15.5 WNW 6 9 1014.0 - 1.4 - - - - - - -
28/02:30am 15.4 WNW 5 9 1014.1 - 1.4 - - - - - - -
28/02:00am 15.8 WNW 5 8 1014.3 - 1.4 - - - - - - -
28/01:30am 16.0 WNW 5 7 1014.4 - 1.4 - - - - - - -
28/01:00am 16.0 WNW 7 11 1014.3 - 1.4 - - - - - - -
28/12:30am 15.9 WNW 6 10 1014.4 - 1.4 - - - - - - -
28/12:00am 16.0 WNW 7 11 1014.5 - 1.4 - - - - - - -
 
Date/Time
CDT
Temp
°C
Wind Pressure Rain since
9am
mm
Weather Cloud Vis
km
Sea
Height
m
Swell
Dir  Spd
kts
Gust
kts
hPa Trend Height
m
Period
s
Dir
27/11:30pm 15.9 WNW 7 9 1014.4 - 1.4 - - - - - - -
27/11:00pm 15.6 WNW 5 9 1014.2 - 1.4 - - - - - - -
27/10:30pm 15.5 WNW 4 6 1014.2 - 1.4 - - - - - - -
27/10:00pm 15.7 W 5 8 1014.2 - 1.4 - - - - - - -
27/09:30pm 15.8 WNW 6 9 1014.3 - 1.4 - - - - - - -
27/09:00pm 15.8 WNW 5 7 1014.1 - 1.4 - - - - - - -
27/08:30pm 16.3 W 6 11 1013.9 - 1.4 - - - - - - -
27/08:00pm 16.6 WNW 7 11 1013.6 - 1.4 - - - - - - -
27/07:30pm 16.7 W 7 12 1013.5 - 1.4 - - - - - - -
27/07:00pm 17.5 W 7 13 1013.3 - 1.4 - - - - - - -
27/06:30pm 18.2 WNW 9 14 1013.1 - 1.4 - - - - - - -
27/06:00pm 19.2 WNW 10 15 1012.8 - 1.4 - - - - - - -
27/05:30pm 20.0 WNW 10 17 1012.7 - 1.4 - - - - - - -
27/05:00pm 20.4 WNW 11 17 1012.5 - 1.4 - - - - - - -
27/04:30pm 20.8 WNW 12 18 1012.3 - 1.4 - - - - - - -
27/04:00pm 20.8 WNW 12 18 1012.1 - 1.4 - - - - - - -
27/03:30pm 20.9 WNW 13 20 1011.9 - 1.4 - - - - - - -

Other Formats:

Comma delimited format used in spreadsheet applications
http://www.bom.gov.au/fwo/IDS60701/IDS60701.95816.axf

JavaScript Object Notation format (JSON) in row-major order
http://www.bom.gov.au/fwo/IDS60701/IDS60701.95816.json